createdAt,value
2019-01-18T00:00:57.083Z,100665.98
2019-01-18T00:03:24.990Z,100675.42
2019-01-18T00:05:52.703Z,100684.86
2019-01-18T00:08:20.786Z,100684.91
2019-01-18T00:10:48.775Z,100689.41
2019-01-18T00:13:16.862Z,100697.50
2019-01-18T00:15:45.030Z,100696.23
2019-01-18T00:18:12.866Z,100699.81
2019-01-18T00:20:40.690Z,100700.74
2019-01-18T00:23:09.014Z,100716.46
2019-01-18T00:25:37.390Z,100720.51
2019-01-18T00:28:05.357Z,100732.22
2019-01-18T00:30:33.718Z,100734.92
2019-01-18T00:33:01.466Z,100738.97
2019-01-18T00:35:29.290Z,100748.02
2019-01-18T00:37:57.123Z,100749.30
2019-01-18T00:40:24.850Z,100763.24
2019-01-18T00:42:53.030Z,100767.78
2019-01-18T00:45:21.187Z,100770.83
2019-01-18T00:47:49.545Z,100775.26
2019-01-18T00:50:17.274Z,100785.13
2019-01-18T00:52:45.014Z,100794.56
2019-01-18T00:55:13.075Z,100795.45
2019-01-18T00:57:40.835Z,100803.07
2019-01-18T01:00:13.450Z,100811.16
2019-01-18T01:02:41.712Z,100813.44
2019-01-18T01:05:10.166Z,100824.23
2019-01-18T01:07:38.511Z,100826.00
2019-01-18T01:10:06.827Z,100826.92
2019-01-18T01:12:34.795Z,100825.16
2019-01-18T01:15:03.032Z,100830.63
2019-01-18T01:17:31.006Z,100831.02
2019-01-18T01:19:59.023Z,100840.95
2019-01-18T01:22:27.015Z,100854.95
2019-01-18T01:24:55.059Z,100862.57
2019-01-18T01:27:23.111Z,100881.45
2019-01-18T01:29:51.390Z,100887.31
2019-01-18T01:32:19.770Z,100888.66
2019-01-18T01:34:48.027Z,100897.71
2019-01-18T01:37:15.791Z,100896.36
2019-01-18T01:39:43.628Z,100906.19
2019-01-18T01:42:11.743Z,100913.01
2019-01-18T01:44:39.766Z,100914.82
2019-01-18T01:47:07.556Z,100922.98
2019-01-18T01:49:35.667Z,100928.37
2019-01-18T01:52:03.859Z,100934.70
2019-01-18T01:54:33.274Z,100934.70
2019-01-18T01:57:01.339Z,100935.16
2019-01-18T01:59:29.471Z,100940.98
2019-01-18T02:01:57.273Z,100949.88
2019-01-18T02:04:25.046Z,100956.59
2019-01-18T02:06:53.039Z,100965.95
2019-01-18T02:09:21.288Z,100966.30
2019-01-18T02:11:49.850Z,100979.26
2019-01-18T02:14:18.173Z,100984.61
2019-01-18T02:16:46.503Z,100989.59
2019-01-18T02:19:14.915Z,100990.47
2019-01-18T02:21:42.974Z,100993.59
2019-01-18T02:24:11.046Z,100995.09
2019-01-18T02:26:38.838Z,101003.08
2019-01-18T02:29:07.199Z,101008.94
2019-01-18T02:31:35.270Z,101014.82
2019-01-18T02:34:03.332Z,101017.09
2019-01-18T02:36:32.083Z,101023.84
2019-01-18T02:39:00.109Z,101028.34
2019-01-18T02:41:28.563Z,101029.27
2019-01-18T02:43:56.355Z,101036.08
2019-01-18T02:46:24.130Z,101034.81
2019-01-18T02:48:52.184Z,101041.05
2019-01-18T02:51:20.038Z,101034.38
2019-01-18T02:53:48.692Z,101034.81
2019-01-18T02:56:17.134Z,101036.19
2019-01-18T02:58:44.860Z,101033.07
2019-01-18T03:01:13.267Z,101038.96
2019-01-18T03:03:40.985Z,101038.89
2019-01-18T03:06:08.715Z,101038.89
2019-01-18T03:08:36.887Z,101044.81
2019-01-18T03:11:04.650Z,101045.20
2019-01-18T03:13:32.494Z,101051.09
2019-01-18T03:16:00.283Z,101052.91
2019-01-18T03:18:28.318Z,101054.72
2019-01-18T03:20:56.407Z,101061.53
2019-01-18T03:23:24.530Z,101062.38
2019-01-18T03:25:52.539Z,101062.81
2019-01-18T03:28:20.641Z,101069.98
2019-01-18T03:30:48.394Z,101071.33
2019-01-18T03:33:16.659Z,101071.26
2019-01-18T03:35:44.690Z,101082.41
2019-01-18T03:38:13.287Z,101087.80
2019-01-18T03:40:42.064Z,101094.08
2019-01-18T03:43:10.198Z,101099.02
2019-01-18T03:45:38.247Z,101099.91
2019-01-18T03:48:06.580Z,101094.08
2019-01-18T03:50:34.694Z,101103.06
2019-01-18T03:53:02.763Z,101107.11
2019-01-18T03:55:31.258Z,101109.34
2019-01-18T03:57:59.307Z,101112.53
2019-01-18T04:00:28.177Z,101119.28
2019-01-18T04:02:56.628Z,101123.39
2019-01-18T04:05:24.391Z,101134.64
2019-01-18T04:07:52.429Z,101142.73
2019-01-18T04:10:20.195Z,101140.96
2019-01-18T04:12:48.545Z,101149.05
2019-01-18T04:15:17.059Z,101149.05
2019-01-18T04:17:45.439Z,101145.17
2019-01-18T04:20:13.827Z,101156.75
2019-01-18T04:22:41.898Z,101166.19
2019-01-18T04:25:11.276Z,101163.06
2019-01-18T04:27:39.242Z,101167.11
2019-01-18T04:30:08.844Z,101175.20
2019-01-18T04:32:36.959Z,101169.88
2019-01-18T04:35:05.140Z,101182.94
2019-01-18T04:37:32.905Z,101157.88
2019-01-18T04:40:00.867Z,101182.94
2019-01-18T04:42:28.829Z,101186.55
2019-01-18T04:44:56.604Z,101191.48
2019-01-18T04:47:24.575Z,101196.88
2019-01-18T04:49:52.879Z,101192.38
2019-01-18T04:52:20.870Z,101186.55
2019-01-18T04:54:48.716Z,101200.44
2019-01-18T04:57:16.722Z,101204.48
2019-01-18T04:59:45.298Z,101212.97
2019-01-18T05:02:13.275Z,101216.09
2019-01-18T05:04:41.573Z,101227.27
2019-01-18T05:07:10.039Z,101233.98
2019-01-18T05:09:37.874Z,101240.27
2019-01-18T05:12:05.943Z,101237.05
2019-01-18T05:14:33.698Z,101240.17
2019-01-18T05:17:01.704Z,101248.20
2019-01-18T05:19:29.873Z,101251.33
2019-01-18T05:21:58.478Z,101253.13
2019-01-18T05:24:26.222Z,101249.97
2019-01-18T05:26:54.034Z,101257.18
2019-01-18T05:29:22.194Z,101258.53
2019-01-18T05:31:50.917Z,101255.83
2019-01-18T05:34:18.672Z,101265.80
2019-01-18T05:36:46.683Z,101263.52
2019-01-18T05:39:14.787Z,101265.83
2019-01-18T05:41:42.947Z,101269.69
2019-01-18T05:44:11.189Z,101273.03
2019-01-18T05:46:39.810Z,101283.45
2019-01-18T05:49:08.295Z,101284.95
2019-01-18T05:51:36.383Z,101279.70
2019-01-18T05:54:04.164Z,101282.89
2019-01-18T05:56:31.965Z,101286.16
2019-01-18T05:58:59.706Z,101292.98
2019-01-18T06:01:28.260Z,101295.77
2019-01-18T06:03:56.615Z,101299.84
2019-01-18T06:06:25.129Z,101299.43
2019-01-18T06:08:52.990Z,101303.08
2019-01-18T06:11:21.351Z,101301.73
2019-01-18T06:13:49.159Z,101296.43
2019-01-18T06:16:17.206Z,101293.45
2019-01-18T06:18:45.663Z,101303.23
2019-01-18T06:21:13.752Z,101302.84
2019-01-18T06:23:42.115Z,101303.67
2019-01-18T06:26:10.231Z,101304.13
2019-01-18T06:28:37.975Z,101309.14
2019-01-18T06:31:06.435Z,101311.03
2019-01-18T06:33:34.862Z,101309.30
2019-01-18T06:36:03.314Z,101309.88
2019-01-18T06:38:32.210Z,101306.77
2019-01-18T06:41:09.113Z,101310.93
2019-01-18T06:43:36.879Z,101307.59
2019-01-18T06:46:04.910Z,101317.22
2019-01-18T06:48:32.915Z,101319.64
2019-01-18T06:51:00.638Z,101319.77
2019-01-18T06:53:29.106Z,101320.14
2019-01-18T06:55:57.128Z,101315.82
2019-01-18T06:58:24.863Z,101324.17
2019-01-18T07:00:52.654Z,101327.77
2019-01-18T07:03:20.667Z,101329.75
2019-01-18T07:05:48.386Z,101333.17
2019-01-18T07:08:16.147Z,101336.22
2019-01-18T07:10:44.394Z,101340.63
2019-01-18T07:13:12.690Z,101346.83
2019-01-18T07:15:40.999Z,101356.17
2019-01-18T07:18:08.735Z,101354.77
2019-01-18T07:20:36.704Z,101349.34
2019-01-18T07:23:04.458Z,101355.57
2019-01-18T07:25:32.450Z,101360.05
2019-01-18T07:28:00.810Z,101360.94
2019-01-18T07:30:33.171Z,101364.92
2019-01-18T07:33:01.550Z,101371.20
2019-01-18T07:35:29.521Z,101376.59
2019-01-18T07:37:57.478Z,101376.59
2019-01-18T07:40:26.141Z,101376.13
2019-01-18T07:42:54.079Z,101379.72
2019-01-18T07:45:23.174Z,101377.02
2019-01-18T07:47:50.954Z,101381.46
2019-01-18T07:50:20.154Z,101388.20
2019-01-18T07:52:48.751Z,101389.55
2019-01-18T07:55:16.770Z,101401.22
2019-01-18T07:57:45.155Z,101402.11
2019-01-18T08:00:14.391Z,101404.81
2019-01-18T08:02:42.747Z,101402.11
2019-01-18T08:05:10.483Z,101403.89
2019-01-18T08:07:38.321Z,101402.57
2019-01-18T08:10:08.087Z,101403.46
2019-01-18T08:12:35.906Z,101404.38
2019-01-18T08:15:03.864Z,101401.68
2019-01-18T08:17:31.986Z,101407.53
2019-01-18T08:20:00.083Z,101409.77
2019-01-18T08:22:28.491Z,101415.59
2019-01-18T08:24:56.479Z,101414.76
2019-01-18T08:27:24.691Z,101381.11
2019-01-18T08:29:52.447Z,101414.27
2019-01-18T08:32:20.430Z,101421.01
2019-01-18T08:34:48.159Z,101418.80
2019-01-18T08:37:16.019Z,101425.03
2019-01-18T08:39:44.127Z,101425.48
2019-01-18T08:42:11.912Z,101424.11
2019-01-18T08:44:40.294Z,101425.94
2019-01-18T08:47:08.338Z,101424.11
2019-01-18T08:49:36.422Z,101423.67
2019-01-18T08:52:04.174Z,101421.88
2019-01-18T08:54:32.259Z,101426.75
2019-01-18T08:57:00.051Z,101426.69
2019-01-18T08:59:27.802Z,101428.53
2019-01-18T09:01:55.898Z,101432.58
2019-01-18T09:04:23.639Z,101430.73
2019-01-18T09:06:51.896Z,101435.66
2019-01-18T09:09:20.214Z,101435.66
2019-01-18T09:11:48.227Z,101435.21
2019-01-18T09:14:19.537Z,101436.55
2019-01-18T09:16:46.674Z,101433.42
2019-01-18T09:19:14.723Z,101442.41
2019-01-18T09:21:42.486Z,101442.01
2019-01-18T09:24:10.707Z,101445.10
2019-01-18T09:26:39.022Z,101444.21
2019-01-18T09:29:07.087Z,101470.72
2019-01-18T09:31:34.923Z,101467.13
2019-01-18T09:34:02.954Z,101468.02
2019-01-18T09:36:30.796Z,101473.87
2019-01-18T09:38:59.114Z,101473.01
2019-01-18T09:41:27.171Z,101477.05
2019-01-18T09:43:55.242Z,101483.30
2019-01-18T09:46:23.211Z,101483.80
2019-01-18T09:48:51.262Z,101491.91
2019-01-18T09:51:20.054Z,101495.03
2019-01-18T09:53:48.127Z,101489.20
2019-01-18T09:56:16.011Z,101491.91
2019-01-18T09:58:44.449Z,101492.80
2019-01-18T10:01:12.198Z,101496.89
2019-01-18T10:03:39.983Z,101494.59
2019-01-18T10:06:07.705Z,101502.69
2019-01-18T10:08:35.794Z,101498.70
2019-01-18T10:11:04.144Z,101501.80
2019-01-18T10:13:32.067Z,101499.59
2019-01-18T10:16:00.191Z,101499.98
2019-01-18T10:18:28.535Z,101488.48
2019-01-18T10:20:56.733Z,101496.38
2019-01-18T10:23:24.794Z,101499.02
2019-01-18T10:25:53.264Z,101503.50
2019-01-18T10:28:21.346Z,101494.50
2019-01-18T10:30:50.047Z,101498.99
2019-01-18T10:33:18.386Z,101506.57
2019-01-18T10:35:46.414Z,101506.57
2019-01-18T10:38:14.435Z,101509.70
2019-01-18T10:40:42.280Z,101502.07
2019-01-18T10:43:10.056Z,101509.70
2019-01-18T10:45:39.048Z,101518.64
2019-01-18T10:48:07.161Z,101519.13
2019-01-18T10:50:34.894Z,101518.70
2019-01-18T10:53:02.726Z,101523.20
2019-01-18T10:55:31.081Z,101518.70
2019-01-18T10:57:59.710Z,101521.26
2019-01-18T11:00:28.471Z,101522.59
2019-01-18T11:02:56.602Z,101521.23
2019-01-18T11:05:24.821Z,101526.12
2019-01-18T11:07:52.554Z,101530.59
2019-01-18T11:10:20.282Z,101530.08
2019-01-18T11:12:48.295Z,101536.80
2019-01-18T11:15:17.471Z,101526.02
2019-01-18T11:17:46.279Z,101538.98
2019-01-18T11:20:15.610Z,101528.66
2019-01-18T11:22:43.636Z,101531.35
2019-01-18T11:25:11.858Z,101532.64
2019-01-18T11:27:39.925Z,101529.03
2019-01-18T11:30:09.382Z,101525.04
2019-01-18T11:32:37.980Z,101530.83
2019-01-18T11:35:06.792Z,101535.34
2019-01-18T11:37:34.591Z,101532.18
2019-01-18T11:40:03.674Z,101538.91
2019-01-18T11:42:31.415Z,101535.31
2019-01-18T11:44:59.143Z,101532.18
2019-01-18T11:47:28.376Z,101526.78
2019-01-18T11:49:57.062Z,101530.83
2019-01-18T11:52:25.423Z,101535.31
2019-01-18T11:54:53.181Z,101533.05
2019-01-18T11:57:21.251Z,101532.10
2019-01-18T11:59:50.581Z,101538.38
2019-01-18T12:02:22.032Z,101542.86
2019-01-18T12:04:48.557Z,101543.23
2019-01-18T12:07:16.516Z,101538.76
2019-01-18T12:09:44.610Z,101539.20
2019-01-18T12:12:12.366Z,101543.23
2019-01-18T12:14:40.362Z,101545.05
2019-01-18T12:17:09.011Z,101545.05
2019-01-18T12:19:37.027Z,101549.12
2019-01-18T12:22:04.746Z,101550.01
2019-01-18T12:24:33.131Z,101549.55
2019-01-18T12:27:01.426Z,101553.59
2019-01-18T12:29:29.784Z,101546.42
2019-01-18T12:31:57.598Z,101554.52
2019-01-18T12:34:25.335Z,101552.77
2019-01-18T12:36:58.875Z,101549.61
2019-01-18T12:39:23.347Z,101541.02
2019-01-18T12:41:51.376Z,101542.37
2019-01-18T12:44:19.142Z,101524.77
2019-01-18T12:46:46.918Z,101547.37
2019-01-18T12:49:14.643Z,101550.06
2019-01-18T12:51:42.374Z,101545.59
2019-01-18T12:54:10.118Z,101549.63
2019-01-18T12:56:37.926Z,101546.10
2019-01-18T12:59:05.939Z,101548.80
2019-01-18T13:01:33.995Z,101542.95
2019-01-18T13:04:01.976Z,101540.70
2019-01-18T13:06:30.303Z,101545.64
2019-01-18T13:08:58.335Z,101543.84
2019-01-18T13:11:26.090Z,101535.83
2019-01-18T13:13:55.110Z,101541.14
2019-01-18T13:16:42.451Z,101536.15
2019-01-18T13:19:12.555Z,101538.38
2019-01-18T13:21:41.839Z,101540.17
2019-01-18T13:24:09.935Z,101536.15
2019-01-18T13:26:37.818Z,101540.17
2019-01-18T13:29:05.561Z,101538.76
2019-01-18T13:31:33.610Z,101548.17
2019-01-18T13:34:03.156Z,101538.73
2019-01-18T13:36:31.065Z,101542.73
2019-01-18T13:38:59.178Z,101549.02
2019-01-18T13:41:27.249Z,101557.99
2019-01-18T13:43:55.515Z,101558.85
2019-01-18T13:46:23.255Z,101561.14
2019-01-18T13:48:51.018Z,101565.65
2019-01-18T13:51:19.019Z,101567.89
2019-01-18T13:53:47.243Z,101566.56
2019-01-18T13:56:15.191Z,101567.45
2019-01-18T13:58:43.172Z,101565.22
2019-01-18T14:01:10.983Z,101564.82
2019-01-18T14:03:38.793Z,101574.20
2019-01-18T14:06:06.843Z,101569.27
2019-01-18T14:08:35.118Z,101573.80
2019-01-18T14:11:04.518Z,101579.65
2019-01-18T14:13:32.571Z,101581.89
2019-01-18T14:16:00.661Z,101581.89
2019-01-18T14:18:28.720Z,101577.84
2019-01-18T14:20:56.772Z,101582.34
2019-01-18T14:23:25.190Z,101586.39
2019-01-18T14:25:53.595Z,101590.90
2019-01-18T14:28:21.944Z,101592.70
2019-01-18T14:30:50.415Z,101590.92
2019-01-18T14:33:18.703Z,101595.86
2019-01-18T14:35:46.762Z,101592.77
2019-01-18T14:38:15.045Z,101610.69
2019-01-18T14:40:42.780Z,101600.85
2019-01-18T14:43:10.562Z,101609.80
2019-01-18T14:45:39.359Z,101612.49
2019-01-18T14:48:07.435Z,101618.38
2019-01-18T14:50:35.152Z,101612.09
2019-01-18T14:53:03.227Z,101613.84
2019-01-18T14:55:31.653Z,101616.52
2019-01-18T14:57:59.386Z,101612.91
2019-01-18T15:00:29.178Z,101621.00
2019-01-18T15:03:02.317Z,101616.00
2019-01-18T15:05:27.107Z,101621.84
2019-01-18T15:07:55.092Z,101620.95
2019-01-18T15:10:23.308Z,101618.25
2019-01-18T15:12:52.180Z,101618.19
2019-01-18T15:15:20.635Z,101628.52
2019-01-18T15:17:48.935Z,101629.87
2019-01-18T15:20:18.315Z,101628.52
2019-01-18T15:22:46.396Z,101635.72
2019-01-18T15:25:15.230Z,101640.72
2019-01-18T15:27:42.991Z,101638.02
2019-01-18T15:30:12.046Z,101640.28
2019-01-18T15:32:39.815Z,101644.77
2019-01-18T15:35:08.679Z,101638.48
2019-01-18T15:37:36.983Z,101638.53
2019-01-18T15:40:05.675Z,101642.09
2019-01-18T15:42:33.767Z,101646.63
2019-01-18T15:45:02.853Z,101649.78
2019-01-18T15:47:30.718Z,101650.18
2019-01-18T15:49:58.498Z,101649.78
2019-01-18T15:52:26.525Z,101648.89
2019-01-18T15:54:54.546Z,101651.58
2019-01-18T15:57:22.606Z,101646.64
2019-01-18T15:59:50.430Z,101653.39
2019-01-18T16:02:18.414Z,101652.49
2019-01-18T16:04:46.614Z,101650.74
2019-01-18T16:07:14.590Z,101659.69
2019-01-18T16:09:42.870Z,101653.89
2019-01-18T16:12:10.659Z,101653.89
2019-01-18T16:14:38.373Z,101655.64
2019-01-18T16:17:11.182Z,101657.48
2019-01-18T16:19:39.231Z,101654.73
2019-01-18T16:22:07.266Z,101664.17
2019-01-18T16:24:35.481Z,101664.17
2019-01-18T16:27:03.462Z,101658.33
2019-01-18T16:29:31.459Z,101658.76
2019-01-18T16:31:59.550Z,101668.14
2019-01-18T16:34:27.856Z,101663.19
2019-01-18T16:36:55.606Z,101660.48
2019-01-18T16:39:23.658Z,101655.55
2019-01-18T16:41:51.717Z,101655.09
2019-01-18T16:44:20.503Z,101659.54
2019-01-18T16:46:48.596Z,101659.14
2019-01-18T16:49:16.458Z,101655.17
2019-01-18T16:51:44.875Z,101662.23
2019-01-18T16:54:13.375Z,101657.79
2019-01-18T16:56:41.352Z,101662.70
2019-01-18T16:59:09.298Z,101653.75
2019-01-18T17:01:37.526Z,101654.66
2019-01-18T17:04:05.807Z,101656.01
2019-01-18T17:06:33.785Z,101656.90
2019-01-18T17:09:01.813Z,101657.36
2019-01-18T17:11:30.043Z,101653.77
2019-01-18T17:13:57.771Z,101649.72
2019-01-18T17:16:25.725Z,101651.53
2019-01-18T17:18:53.782Z,101651.96
2019-01-18T17:21:21.826Z,101655.58
2019-01-18T17:23:49.531Z,101660.56
2019-01-18T17:26:17.489Z,101660.00
2019-01-18T17:28:45.818Z,101665.88
2019-01-18T17:31:13.776Z,101663.19
2019-01-18T17:33:41.524Z,101660.05
2019-01-18T17:36:16.554Z,101672.25
2019-01-18T17:39:01.308Z,101669.80
2019-01-18T17:41:38.779Z,101669.31
2019-01-18T17:44:13.067Z,101670.61
2019-01-18T17:46:48.283Z,101672.42
2019-01-18T17:49:41.414Z,101668.37
2019-01-18T17:52:16.285Z,101669.27
2019-01-18T17:54:52.283Z,101670.08
2019-01-18T17:57:48.660Z,101674.97
2019-01-18T18:00:35.678Z,101676.67
2019-01-18T18:03:08.546Z,101686.04
2019-01-18T18:05:55.578Z,101684.27
2019-01-18T18:08:51.879Z,101691.00
2019-01-18T18:11:58.035Z,101687.84
2019-01-18T18:14:43.078Z,101683.74
2019-01-18T18:17:23.202Z,101688.17
2019-01-18T18:20:04.191Z,101689.05
2019-01-18T18:22:57.638Z,101691.25
2019-01-18T18:25:53.864Z,101693.47
2019-01-18T18:28:53.476Z,101697.97
2019-01-18T18:31:32.875Z,101697.91
2019-01-18T18:34:18.889Z,101697.44
2019-01-18T18:36:59.276Z,101697.74
2019-01-18T18:39:37.555Z,101696.26
2019-01-18T18:42:33.931Z,101701.66
2019-01-18T18:45:11.308Z,101698.91
2019-01-18T18:47:56.410Z,101700.23
2019-01-18T18:50:38.063Z,101706.48
2019-01-18T18:53:43.326Z,101703.27
2019-01-18T18:56:27.647Z,101709.55
2019-01-18T18:59:02.158Z,101715.77
2019-01-18T19:01:55.550Z,101722.89
2019-01-18T19:04:30.726Z,101711.66
2019-01-18T19:07:30.795Z,101722.89
2019-01-18T19:10:01.759Z,101726.66
2019-01-18T19:12:47.863Z,101720.11
2019-01-18T19:15:47.848Z,101723.17
2019-01-18T19:18:36.221Z,101730.70
2019-01-18T19:21:38.683Z,101726.20
2019-01-18T19:24:28.111Z,101727.98
2019-01-18T19:27:09.418Z,101726.64
2019-01-18T19:29:55.905Z,101730.62
2019-01-18T19:32:29.096Z,101733.39
2019-01-18T19:35:00.044Z,101732.95
2019-01-18T19:37:47.353Z,101732.06
2019-01-18T19:40:18.915Z,101733.00
2019-01-18T19:43:17.944Z,101737.52
2019-01-18T19:46:03.652Z,101737.05
2019-01-18T19:48:35.407Z,101739.31
2019-01-18T19:51:09.526Z,101744.72
2019-01-18T19:53:56.009Z,101746.06
2019-01-18T19:56:53.106Z,101748.70
2019-01-18T19:59:40.239Z,101747.34
2019-01-18T20:02:26.422Z,101749.98
2019-01-18T20:05:19.567Z,101753.62
2019-01-18T20:07:59.707Z,101753.19
2019-01-18T20:10:52.996Z,101759.94
2019-01-18T20:13:40.131Z,101753.25
2019-01-18T20:16:16.890Z,101754.09
2019-01-18T20:18:51.763Z,101758.64
2019-01-18T20:21:23.779Z,101760.84
2019-01-18T20:24:02.008Z,101758.67
2019-01-18T20:26:49.591Z,101759.82
2019-01-18T20:29:35.820Z,101755.56
2019-01-18T20:32:08.467Z,101757.33
2019-01-18T20:35:07.731Z,101759.09
2019-01-18T20:37:57.859Z,101763.72
2019-01-18T20:40:44.175Z,101765.50
2019-01-18T20:43:34.819Z,101760.02
2019-01-18T20:46:14.093Z,101769.38
2019-01-18T20:48:52.987Z,101771.17
2019-01-18T20:51:27.931Z,101766.63
2019-01-18T20:54:13.363Z,101771.58
2019-01-18T20:57:00.477Z,101774.73
2019-01-18T20:59:36.743Z,101774.33
2019-01-18T21:02:36.251Z,101769.84
2019-01-18T21:05:25.495Z,101771.27
2019-01-18T21:08:12.359Z,101775.31
2019-01-18T21:10:57.953Z,101781.58
2019-01-18T21:13:36.874Z,101777.09
2019-01-18T21:16:10.044Z,101773.48
2019-01-18T21:18:43.960Z,101781.09
2019-01-18T21:21:33.813Z,101780.23
2019-01-18T21:24:08.071Z,101776.64
2019-01-18T21:27:06.005Z,101775.23
2019-01-18T21:29:54.203Z,101780.23
2019-01-18T21:32:53.866Z,101785.63
2019-01-18T21:35:50.132Z,101782.49
2019-01-18T21:38:31.264Z,101784.73
2019-01-18T21:41:17.619Z,101778.91
2019-01-18T21:44:10.819Z,101783.83
2019-01-18T21:46:53.797Z,101787.02
2019-01-18T21:49:41.036Z,101790.19
2019-01-18T21:52:27.024Z,101787.50
2019-01-18T21:55:19.996Z,101783.88
2019-01-18T21:58:07.082Z,101789.28
2019-01-18T22:00:52.384Z,101785.23
2019-01-18T22:03:39.226Z,101785.18
2019-01-18T22:06:10.798Z,101775.31
2019-01-18T22:08:43.943Z,101770.39
2019-01-18T22:11:16.765Z,101781.20
2019-01-18T22:14:10.190Z,101772.34
2019-01-18T22:16:46.679Z,101780.73
2019-01-18T22:19:37.071Z,101773.51
2019-01-18T22:22:08.739Z,101779.34
2019-01-18T22:25:14.184Z,101777.09
2019-01-18T22:27:54.199Z,101780.64
2019-01-18T22:30:47.259Z,101785.58
2019-01-18T22:33:26.475Z,101784.30
2019-01-18T22:36:02.042Z,101788.37
2019-01-18T22:38:55.399Z,101791.05
2019-01-18T22:41:30.892Z,101793.77
2019-01-18T22:44:08.867Z,101784.32
2019-01-18T22:46:48.223Z,101784.80
2019-01-18T22:49:35.267Z,101788.90
2019-01-18T22:52:15.771Z,101791.62
2019-01-18T22:55:03.057Z,101789.88
2019-01-18T22:57:33.350Z,101789.48
2019-01-18T23:00:40.982Z,101794.89
2019-01-18T23:03:22.527Z,101790.45
2019-01-18T23:06:07.116Z,101795.41
2019-01-18T23:08:41.922Z,101799.45
2019-01-18T23:11:34.930Z,101804.41
2019-01-18T23:14:28.329Z,101804.47
2019-01-18T23:17:05.080Z,101807.62
2019-01-18T23:19:58.691Z,101809.02
2019-01-18T23:22:40.577Z,101809.02
2019-01-18T23:25:30.410Z,101810.37
2019-01-18T23:28:08.600Z,101808.12
2019-01-18T23:30:39.139Z,101810.82
2019-01-18T23:33:29.495Z,101808.53
2019-01-18T23:36:03.637Z,101814.81
2019-01-18T23:38:46.037Z,101810.37
2019-01-18T23:41:19.727Z,101813.47
2019-01-18T23:43:54.176Z,101811.72
2019-01-18T23:46:42.116Z,101803.19
2019-01-18T23:49:13.044Z,101807.23
2019-01-18T23:51:59.323Z,101802.75
2019-01-18T23:54:45.299Z,101792.91
2019-01-18T23:57:16.909Z,101796.05
2019-01-18T23:59:47.804Z,101794.70
